METAR Data
IDs: Format: Raw Decoded Include TAF

Data at: 2021 UTC 14 Dec 2018

KCDS 141953Z AUTO 36017G24KT 10SM CLR 12/M15 A3023 RMK AO2 PK WND 35028/1859 SLP237 T01171150
KCDS 141853Z AUTO 36023G29KT 10SM CLR 11/M16 A3025 RMK AO2 PK WND 01031/1807 SLP242 T01061156
KCDS 141753Z AUTO 36021G32KT 10SM CLR 09/M16 A3026 RMK AO2 PK WND 36033/1737 SLP247 T00941156 10094 20000 50004
KCDS 141653Z AUTO 36022KT 10SM CLR 08/M13 A3029 RMK AO2 PK WND 36031/1607 SLP257 T00781133
KCDS 141553Z AUTO 35017G25KT 10SM CLR 06/M12 A3026 RMK AO2 SLP251 T00561122
KCDS 141453Z AUTO 33019KT 10SM CLR 02/M11 A3025 RMK AO2 SLP248 T00171106 51027
KCDS 141353Z AUTO 33016KT 10SM CLR 01/M11 A3022 RMK AO2 SLP238 T00061106
KCDS 141253Z AUTO 33017KT 10SM CLR 01/M09 A3019 RMK AO2 SLP229 T00061094
KCDS 141153Z AUTO 33020KT 10SM CLR 01/M09 A3016 RMK AO2 SLP218 T00111094 10044 20011 53006
KCDS 141053Z AUTO 34018KT 10SM CLR 02/M09 A3016 RMK AO2 SLP215 T00171089
KCDS 140953Z AUTO 35020G27KT 10SM CLR 03/M09 A3015 RMK AO2 PK WND 36028/0932 SLP211 T00331094
KCDS 140853Z AUTO 36024G31KT 10SM CLR 04/M09 A3014 RMK AO2 PK WND 01036/0805 SLP209 T00391089 53012
KCDS 140753Z AUTO 36023G30KT 10SM CLR 04/M08 A3012 RMK AO2 PK WND 36035/0706 SLP201 T00441078
KCDS 140653Z AUTO 36027G34KT 10SM CLR 04/M07 A3011 RMK AO2 PK WND 35035/0601 SLP198 T00441072
KCDS 140553Z AUTO 36028G33KT 10SM CLR 04/M07 A3011 RMK AO2 PK WND 35035/0539 SLP197 T00441072 10083 20044 401000044 51011
KCDS 140453Z AUTO 36025G33KT 10SM CLR 05/M07 A3010 RMK AO2 PK WND 36035/0423 SLP194 T00501072
KCDS 140353Z AUTO 36025G32KT 10SM CLR 06/M07 A3009 RMK AO2 PK WND 36034/0304 SLP191 T00561067
KCDS 140253Z AUTO 36026G34KT 10SM CLR 06/M07 A3007 RMK AO2 PK WND 01039/0202 SLP185 T00611067 51027
KCDS 140153Z AUTO 36031G36KT 10SM CLR 07/M04 A3005 RMK AO2 PK WND 01046/0055 SLP177 T00721044
KCDS 140053Z AUTO 36028G37KT 10SM OVC100 08/M03 A3002 RMK AO2 PK WND 36039/0039 SLP166 T00781033
KCDS 132353Z AUTO 36028G36KT 10SM OVC100 08/M03 A2999 RMK AO2 PK WND 01043/2259 SLP154 T00831028 10089 20078 53026
KCDS 132253Z AUTO 36028G40KT 10SM OVC110 08/M03 A2996 RMK AO2 PK WND 36046/2220 SLP144 T00831028
KCDS 132153Z AUTO 01024G36KT 10SM BKN090 BKN120 08/M02 A2992 RMK AO2 PK WND 36050/2128 SLP132 T00831022
KCDS 132053Z AUTO 36030G46KT 6SM HZ OVC080 08/M02 A2991 RMK AO2 PK WND 35049/2043 SLP124 T00831017 53007
KCDS 131953Z AUTO 36039G49KT 3SM HZ OVC075 08/M01 A2988 RMK AO2 PK WND 01051/1938 SLP114 T00831011
KCDS 131853Z AUTO 01034G48KT 7SM FEW014 BKN080 08/M01 A2989 RMK AO2 PK WND 01049/1841 SLP120 T00831011
KCDS 131753Z AUTO 01036G47KT 5SM HZ OVC110 08/M01 A2988 RMK AO2 PK WND 01053/1721 RAB21E32 SLP118 P0000 60000 T00781011 10078 20050 50012
KCDS 131737Z AUTO 36039G50KT 2 1/2SM HZ FEW015 OVC110 08/M01 A2988 RMK AO2 PK WND 01053/1721 RAB21E32 P0000 T00781006
KCDS 131720Z AUTO 36039G51KT 1 3/4SM HZ FEW017 OVC110 08/M01 A2988 RMK AO2 PK WND 01052/1708 VIS 3/4V5 T00781006
KCDS 131653Z AUTO 36034G49KT 6SM HZ FEW030 SCT100 SCT120 07/M01 A2989 RMK AO2 PK WND 36049/1648 SLP120 T00721006
KCDS 131553Z AUTO 01034G41KT 10SM BKN031 OVC110 07/00 A2993 RMK AO2 PK WND 01046/1502 SLP131 T00670000
KCDS 131453Z AUTO 01033G44KT 10SM FEW120 06/01 A2985 RMK AO2 PK WND 01044/1453 SLP105 T00610006 51045
KCDS 131353Z AUTO 36029G36KT 10SM OVC048 05/00 A2983 RMK AO2 PK WND 01039/1303 SLP101 T00500000
KCDS 131253Z AUTO 01027G42KT 10SM FEW023 OVC033 06/00 A2978 RMK AO2 PK WND 36042/1244 PRESRR SLP084 T00560000
KCDS 131234Z AUTO 01029G38KT 10SM SCT009 BKN019 OVC029 06/01 A2976 RMK AO2 PK WND 36040/1203 PRESRR T00610006
KCDS 131153Z AUTO 01031G39KT 9SM OVC009 06/04 A2971 RMK AO2 PK WND 01043/1125 CIG 008V013 SLP056 T00610039 10100 20044 53037
KCDS 131136Z AUTO 36028G36KT 9SM OVC011 06/04 A2969 RMK AO2 PK WND 01043/1125 T00610039
KCDS 131053Z AUTO 36027G36KT 10SM BKN007 04/03 A2966 RMK AO2 PK WND 36036/1050 SLP040 T00440028
KCDS 131044Z AUTO 35029G36KT 10SM SCT007 04/02 A2966 RMK AO2 PK WND 35036/1044 T00440022
KCDS 130953Z AUTO 34015KT 10SM CLR 07/02 A2963 RMK AO2 SLP025 T00670022
KCDS 130853Z AUTO 23008KT 10SM CLR 09/04 A2959 RMK AO2 SLP012 T00890039 55009